<?xml version="1.0" encoding="UTF-8" standalone="no" ?>
<gpx xmlns="http://www.topografix.com/GPX/1/1" xmlns:xsi="http://www.w3.org/2001/XMLSchema-instance" xsi:schemaLocation="http://www.topografix.com/GPX/1/1 http://www.topografix.com/GPX/1/1/gpx.xsd" version="1.1" creator="VisuGPX - https://www.visugpx.com">
  <metadata>
    <name>Saint-Remèze-Serre de Barrès et Dent de Rez</name>
    <desc><![CDATA[Grandiose panorama au milieu des garigues et des champs de lavande.]]></desc>
  </metadata>
  <trk>
    <name><![CDATA[Le Serre de Barrès et la Dent de Rez depuis Saint-Remèze]]></name>
    <extensions>
      <line xmlns="http://www.topografix.com/GPX/gpx_style/0/2">
        <color>0000FF</color>
        <width>4</width>
      </line>
    </extensions>
    <trkseg>
      <trkpt lat="44.39195" lon="4.50114">
        <ele>365</ele>
        <time>2025-03-20T14:06:34.000Z</time>
      </trkpt>
      <trkpt lat="44.39203" lon="4.50126">
        <ele>365</ele>
        <time>2025-03-20T14:06:47.000Z</time>
      </trkpt>
      <trkpt lat="44.39211" lon="4.50114">
        <ele>364</ele>
        <time>2025-03-20T14:07:00.000Z</time>
      </trkpt>
      <trkpt lat="44.3922" lon="4.50101">
        <ele>364</ele>
        <time>2025-03-20T14:07:15.000Z</time>
      </trkpt>
      <trkpt lat="44.39232" lon="4.50091">
        <ele>362</ele>
        <time>2025-03-20T14:07:31.000Z</time>
      </trkpt>
      <trkpt lat="44.39244" lon="4.50081">
        <ele>361</ele>
        <time>2025-03-20T14:07:47.000Z</time>
      </trkpt>
      <trkpt lat="44.39261" lon="4.50058">
        <ele>360</ele>
        <time>2025-03-20T14:08:14.000Z</time>
      </trkpt>
      <trkpt lat="44.39275" lon="4.50048">
        <ele>360</ele>
        <time>2025-03-20T14:08:31.000Z</time>
      </trkpt>
      <trkpt lat="44.39273" lon="4.50032">
        <ele>360</ele>
        <time>2025-03-20T14:08:45.000Z</time>
      </trkpt>
      <trkpt lat="44.39278" lon="4.50013">
        <ele>361</ele>
        <time>2025-03-20T14:09:11.000Z</time>
      </trkpt>
      <trkpt lat="44.39291" lon="4.49995">
        <ele>362</ele>
        <time>2025-03-20T14:09:42.000Z</time>
      </trkpt>
      <trkpt lat="44.39304" lon="4.49974">
        <ele>362</ele>
        <time>2025-03-20T14:10:05.000Z</time>
      </trkpt>
      <trkpt lat="44.39309" lon="4.49955">
        <ele>362</ele>
        <time>2025-03-20T14:10:22.000Z</time>
      </trkpt>
      <trkpt lat="44.39316" lon="4.4993">
        <ele>361</ele>
        <time>2025-03-20T14:10:43.000Z</time>
      </trkpt>
      <trkpt lat="44.39323" lon="4.49905">
        <ele>361</ele>
        <time>2025-03-20T14:11:06.000Z</time>
      </trkpt>
      <trkpt lat="44.39331" lon="4.49887">
        <ele>363</ele>
        <time>2025-03-20T14:11:44.000Z</time>
      </trkpt>
      <trkpt lat="44.39338" lon="4.49873">
        <ele>362</ele>
        <time>2025-03-20T14:11:58.000Z</time>
      </trkpt>
      <trkpt lat="44.39347" lon="4.49877">
        <ele>363</ele>
        <time>2025-03-20T14:12:19.000Z</time>
      </trkpt>
      <trkpt lat="44.39354" lon="4.49861">
        <ele>363</ele>
        <time>2025-03-20T14:12:34.000Z</time>
      </trkpt>
      <trkpt lat="44.39367" lon="4.49838">
        <ele>363</ele>
        <time>2025-03-20T14:12:58.000Z</time>
      </trkpt>
      <trkpt lat="44.39386" lon="4.49807">
        <ele>364</ele>
        <time>2025-03-20T14:13:42.000Z</time>
      </trkpt>
      <trkpt lat="44.39423" lon="4.49727">
        <ele>365</ele>
        <time>2025-03-20T14:15:11.000Z</time>
      </trkpt>
      <trkpt lat="44.39441" lon="4.49679">
        <ele>366</ele>
        <time>2025-03-20T14:16:05.000Z</time>
      </trkpt>
      <trkpt lat="44.39457" lon="4.49632">
        <ele>366</ele>
        <time>2025-03-20T14:16:48.000Z</time>
      </trkpt>
      <trkpt lat="44.39464" lon="4.49593">
        <ele>366</ele>
        <time>2025-03-20T14:17:21.000Z</time>
      </trkpt>
      <trkpt lat="44.39514" lon="4.49587">
        <ele>368</ele>
        <time>2025-03-20T14:18:39.000Z</time>
      </trkpt>
      <trkpt lat="44.39575" lon="4.49574">
        <ele>370</ele>
        <time>2025-03-20T14:20:11.000Z</time>
      </trkpt>
      <trkpt lat="44.3962" lon="4.49566">
        <ele>373</ele>
        <time>2025-03-20T14:21:34.000Z</time>
      </trkpt>
      <trkpt lat="44.39653" lon="4.49559">
        <ele>375</ele>
        <time>2025-03-20T14:22:33.000Z</time>
      </trkpt>
      <trkpt lat="44.39689" lon="4.49548">
        <ele>377</ele>
        <time>2025-03-20T14:23:35.000Z</time>
      </trkpt>
      <trkpt lat="44.39752" lon="4.49533">
        <ele>381</ele>
        <time>2025-03-20T14:25:30.000Z</time>
      </trkpt>
      <trkpt lat="44.39775" lon="4.49529">
        <ele>382</ele>
        <time>2025-03-20T14:26:06.000Z</time>
      </trkpt>
      <trkpt lat="44.39796" lon="4.49523">
        <ele>384</ele>
        <time>2025-03-20T14:26:51.000Z</time>
      </trkpt>
      <trkpt lat="44.39863" lon="4.49504">
        <ele>387</ele>
        <time>2025-03-20T14:28:41.000Z</time>
      </trkpt>
      <trkpt lat="44.39918" lon="4.49482">
        <ele>391</ele>
        <time>2025-03-20T14:30:28.000Z</time>
      </trkpt>
      <trkpt lat="44.39934" lon="4.49467">
        <ele>393</ele>
        <time>2025-03-20T14:31:11.000Z</time>
      </trkpt>
      <trkpt lat="44.3995" lon="4.49456">
        <ele>395</ele>
        <time>2025-03-20T14:31:52.000Z</time>
      </trkpt>
      <trkpt lat="44.39977" lon="4.49438">
        <ele>397</ele>
        <time>2025-03-20T14:32:47.000Z</time>
      </trkpt>
      <trkpt lat="44.40009" lon="4.49421">
        <ele>401</ele>
        <time>2025-03-20T14:34:07.000Z</time>
      </trkpt>
      <trkpt lat="44.40052" lon="4.49441">
        <ele>408</ele>
        <time>2025-03-20T14:36:11.000Z</time>
      </trkpt>
      <trkpt lat="44.40078" lon="4.49449">
        <ele>411</ele>
        <time>2025-03-20T14:37:12.000Z</time>
      </trkpt>
      <trkpt lat="44.40107" lon="4.49452">
        <ele>415</ele>
        <time>2025-03-20T14:38:27.000Z</time>
      </trkpt>
      <trkpt lat="44.40132" lon="4.4946">
        <ele>417</ele>
        <time>2025-03-20T14:39:16.000Z</time>
      </trkpt>
      <trkpt lat="44.40155" lon="4.49465">
        <ele>419</ele>
        <time>2025-03-20T14:40:03.000Z</time>
      </trkpt>
      <trkpt lat="44.40203" lon="4.49464">
        <ele>427</ele>
        <time>2025-03-20T14:42:21.000Z</time>
      </trkpt>
      <trkpt lat="44.40244" lon="4.49467">
        <ele>435</ele>
        <time>2025-03-20T14:44:30.000Z</time>
      </trkpt>
      <trkpt lat="44.40273" lon="4.4948">
        <ele>443</ele>
        <time>2025-03-20T14:46:27.000Z</time>
      </trkpt>
      <trkpt lat="44.4028" lon="4.4949">
        <ele>446</ele>
        <time>2025-03-20T14:47:10.000Z</time>
      </trkpt>
      <trkpt lat="44.40337" lon="4.49496">
        <ele>465</ele>
        <time>2025-03-20T14:51:31.000Z</time>
      </trkpt>
      <trkpt lat="44.40389" lon="4.49499">
        <ele>477</ele>
        <time>2025-03-20T14:54:34.000Z</time>
      </trkpt>
      <trkpt lat="44.40407" lon="4.49485">
        <ele>480</ele>
        <time>2025-03-20T14:55:29.000Z</time>
      </trkpt>
      <trkpt lat="44.40424" lon="4.49465">
        <ele>484</ele>
        <time>2025-03-20T14:56:36.000Z</time>
      </trkpt>
      <trkpt lat="44.40438" lon="4.49435">
        <ele>487</ele>
        <time>2025-03-20T14:57:36.000Z</time>
      </trkpt>
      <trkpt lat="44.40443" lon="4.49418">
        <ele>490</ele>
        <time>2025-03-20T14:58:22.000Z</time>
      </trkpt>
      <trkpt lat="44.40449" lon="4.49399">
        <ele>493</ele>
        <time>2025-03-20T14:59:10.000Z</time>
      </trkpt>
      <trkpt lat="44.4045" lon="4.49364">
        <ele>497</ele>
        <time>2025-03-20T15:00:20.000Z</time>
      </trkpt>
      <trkpt lat="44.40444" lon="4.49322">
        <ele>500</ele>
        <time>2025-03-20T15:01:26.000Z</time>
      </trkpt>
      <trkpt lat="44.40439" lon="4.49273">
        <ele>504</ele>
        <time>2025-03-20T15:02:47.000Z</time>
      </trkpt>
      <trkpt lat="44.40437" lon="4.49237">
        <ele>511</ele>
        <time>2025-03-20T15:04:29.000Z</time>
      </trkpt>
      <trkpt lat="44.40428" lon="4.49176">
        <ele>520</ele>
        <time>2025-03-20T15:06:53.000Z</time>
      </trkpt>
      <trkpt lat="44.40439" lon="4.49182">
        <ele>520</ele>
        <time>2025-03-20T15:07:06.000Z</time>
      </trkpt>
      <trkpt lat="44.40455" lon="4.49187">
        <ele>519</ele>
        <time>2025-03-20T15:07:25.000Z</time>
      </trkpt>
      <trkpt lat="44.40472" lon="4.49252">
        <ele>516</ele>
        <time>2025-03-20T15:08:21.000Z</time>
      </trkpt>
      <trkpt lat="44.4049" lon="4.493">
        <ele>516</ele>
        <time>2025-03-20T15:09:05.000Z</time>
      </trkpt>
      <trkpt lat="44.40503" lon="4.49364">
        <ele>516</ele>
        <time>2025-03-20T15:10:00.000Z</time>
      </trkpt>
      <trkpt lat="44.40511" lon="4.49386">
        <ele>519</ele>
        <time>2025-03-20T15:10:51.000Z</time>
      </trkpt>
      <trkpt lat="44.40525" lon="4.49426">
        <ele>522</ele>
        <time>2025-03-20T15:11:58.000Z</time>
      </trkpt>
      <trkpt lat="44.40529" lon="4.49461">
        <ele>527</ele>
        <time>2025-03-20T15:13:19.000Z</time>
      </trkpt>
      <trkpt lat="44.40521" lon="4.49494">
        <ele>530</ele>
        <time>2025-03-20T15:14:19.000Z</time>
      </trkpt>
      <trkpt lat="44.40535" lon="4.49523">
        <ele>536</ele>
        <time>2025-03-20T15:15:49.000Z</time>
      </trkpt>
      <trkpt lat="44.4054" lon="4.49532">
        <ele>537</ele>
        <time>2025-03-20T15:16:09.000Z</time>
      </trkpt>
      <trkpt lat="44.40562" lon="4.4954">
        <ele>537</ele>
        <time>2025-03-20T15:16:35.000Z</time>
      </trkpt>
      <trkpt lat="44.40577" lon="4.49552">
        <ele>537</ele>
        <time>2025-03-20T15:16:55.000Z</time>
      </trkpt>
      <trkpt lat="44.40581" lon="4.49566">
        <ele>539</ele>
        <time>2025-03-20T15:17:28.000Z</time>
      </trkpt>
      <trkpt lat="44.40595" lon="4.49572">
        <ele>539</ele>
        <time>2025-03-20T15:17:45.000Z</time>
      </trkpt>
      <trkpt lat="44.40625" lon="4.49596">
        <ele>541</ele>
        <time>2025-03-20T15:18:46.000Z</time>
      </trkpt>
      <trkpt lat="44.40649" lon="4.49597">
        <ele>533</ele>
        <time>2025-03-20T15:19:13.000Z</time>
      </trkpt>
      <trkpt lat="44.40666" lon="4.496">
        <ele>530</ele>
        <time>2025-03-20T15:19:33.000Z</time>
      </trkpt>
      <trkpt lat="44.40687" lon="4.49613">
        <ele>525</ele>
        <time>2025-03-20T15:20:00.000Z</time>
      </trkpt>
      <trkpt lat="44.40698" lon="4.49626">
        <ele>525</ele>
        <time>2025-03-20T15:20:17.000Z</time>
      </trkpt>
      <trkpt lat="44.40719" lon="4.49655">
        <ele>528</ele>
        <time>2025-03-20T15:21:22.000Z</time>
      </trkpt>
      <trkpt lat="44.40724" lon="4.49661">
        <ele>529</ele>
        <time>2025-03-20T15:21:39.000Z</time>
      </trkpt>
      <trkpt lat="44.40733" lon="4.49664">
        <ele>527</ele>
        <time>2025-03-20T15:21:49.000Z</time>
      </trkpt>
      <trkpt lat="44.40749" lon="4.49697">
        <ele>529</ele>
        <time>2025-03-20T15:22:42.000Z</time>
      </trkpt>
      <trkpt lat="44.40764" lon="4.49714">
        <ele>530</ele>
        <time>2025-03-20T15:23:15.000Z</time>
      </trkpt>
      <trkpt lat="44.40783" lon="4.49745">
        <ele>535</ele>
        <time>2025-03-20T15:24:40.000Z</time>
      </trkpt>
      <trkpt lat="44.40805" lon="4.49764">
        <ele>541</ele>
        <time>2025-03-20T15:26:11.000Z</time>
      </trkpt>
      <trkpt lat="44.40822" lon="4.49775">
        <ele>544</ele>
        <time>2025-03-20T15:27:04.000Z</time>
      </trkpt>
      <trkpt lat="44.4084" lon="4.49775">
        <ele>546</ele>
        <time>2025-03-20T15:27:46.000Z</time>
      </trkpt>
      <trkpt lat="44.4086" lon="4.49768">
        <ele>551</ele>
        <time>2025-03-20T15:29:01.000Z</time>
      </trkpt>
      <trkpt lat="44.4088" lon="4.49759">
        <ele>554</ele>
        <time>2025-03-20T15:29:56.000Z</time>
      </trkpt>
      <trkpt lat="44.40906" lon="4.49751">
        <ele>561</ele>
        <time>2025-03-20T15:31:39.000Z</time>
      </trkpt>
      <trkpt lat="44.40927" lon="4.49741">
        <ele>565</ele>
        <time>2025-03-20T15:32:46.000Z</time>
      </trkpt>
      <trkpt lat="44.40948" lon="4.49725">
        <ele>570</ele>
        <time>2025-03-20T15:34:04.000Z</time>
      </trkpt>
      <trkpt lat="44.40977" lon="4.49702">
        <ele>580</ele>
        <time>2025-03-20T15:36:26.000Z</time>
      </trkpt>
      <trkpt lat="44.40983" lon="4.49687">
        <ele>582</ele>
        <time>2025-03-20T15:37:00.000Z</time>
      </trkpt>
      <trkpt lat="44.40996" lon="4.49673">
        <ele>587</ele>
        <time>2025-03-20T15:38:10.000Z</time>
      </trkpt>
      <trkpt lat="44.41024" lon="4.49657">
        <ele>594</ele>
        <time>2025-03-20T15:39:57.000Z</time>
      </trkpt>
      <trkpt lat="44.41046" lon="4.49655">
        <ele>599</ele>
        <time>2025-03-20T15:41:14.000Z</time>
      </trkpt>
      <trkpt lat="44.41069" lon="4.49644">
        <ele>607</ele>
        <time>2025-03-20T15:43:04.000Z</time>
      </trkpt>
      <trkpt lat="44.41099" lon="4.49639">
        <ele>620</ele>
        <time>2025-03-20T15:45:52.000Z</time>
      </trkpt>
      <trkpt lat="44.41108" lon="4.4965">
        <ele>625</ele>
        <time>2025-03-20T15:46:58.000Z</time>
      </trkpt>
      <trkpt lat="44.41122" lon="4.49673">
        <ele>629</ele>
        <time>2025-03-20T15:48:03.000Z</time>
      </trkpt>
      <trkpt lat="44.41133" lon="4.49694">
        <ele>634</ele>
        <time>2025-03-20T15:49:16.000Z</time>
      </trkpt>
      <trkpt lat="44.41142" lon="4.49697">
        <ele>638</ele>
        <time>2025-03-20T15:50:07.000Z</time>
      </trkpt>
      <trkpt lat="44.41151" lon="4.49709">
        <ele>642</ele>
        <time>2025-03-20T15:51:03.000Z</time>
      </trkpt>
      <trkpt lat="44.41157" lon="4.49691">
        <ele>642</ele>
        <time>2025-03-20T15:51:19.000Z</time>
      </trkpt>
      <trkpt lat="44.41176" lon="4.4967">
        <ele>645</ele>
        <time>2025-03-20T15:52:17.000Z</time>
      </trkpt>
      <trkpt lat="44.41182" lon="4.49649">
        <ele>646</ele>
        <time>2025-03-20T15:52:46.000Z</time>
      </trkpt>
      <trkpt lat="44.41182" lon="4.49639">
        <ele>647</ele>
        <time>2025-03-20T15:53:05.000Z</time>
      </trkpt>
      <trkpt lat="44.41197" lon="4.49636">
        <ele>648</ele>
        <time>2025-03-20T15:53:32.000Z</time>
      </trkpt>
      <trkpt lat="44.41216" lon="4.4964">
        <ele>651</ele>
        <time>2025-03-20T15:54:26.000Z</time>
      </trkpt>
      <trkpt lat="44.41231" lon="4.49639">
        <ele>652</ele>
        <time>2025-03-20T15:54:53.000Z</time>
      </trkpt>
      <trkpt lat="44.41252" lon="4.4965">
        <ele>653</ele>
        <time>2025-03-20T15:55:29.000Z</time>
      </trkpt>
      <trkpt lat="44.41278" lon="4.49656">
        <ele>654</ele>
        <time>2025-03-20T15:56:10.000Z</time>
      </trkpt>
      <trkpt lat="44.41287" lon="4.49654">
        <ele>654</ele>
        <time>2025-03-20T15:56:20.000Z</time>
      </trkpt>
      <trkpt lat="44.41292" lon="4.49643">
        <ele>654</ele>
        <time>2025-03-20T15:56:31.000Z</time>
      </trkpt>
      <trkpt lat="44.41304" lon="4.49624">
        <ele>653</ele>
        <time>2025-03-20T15:56:52.000Z</time>
      </trkpt>
      <trkpt lat="44.41315" lon="4.4962">
        <ele>652</ele>
        <time>2025-03-20T15:57:04.000Z</time>
      </trkpt>
      <trkpt lat="44.41328" lon="4.49629">
        <ele>653</ele>
        <time>2025-03-20T15:57:31.000Z</time>
      </trkpt>
      <trkpt lat="44.41343" lon="4.49626">
        <ele>652</ele>
        <time>2025-03-20T15:57:48.000Z</time>
      </trkpt>
      <trkpt lat="44.41349" lon="4.49626">
        <ele>652</ele>
        <time>2025-03-20T15:57:55.000Z</time>
      </trkpt>
      <trkpt lat="44.41361" lon="4.49632">
        <ele>653</ele>
        <time>2025-03-20T15:58:20.000Z</time>
      </trkpt>
      <trkpt lat="44.41375" lon="4.49646">
        <ele>654</ele>
        <time>2025-03-20T15:58:50.000Z</time>
      </trkpt>
      <trkpt lat="44.41387" lon="4.49644">
        <ele>653</ele>
        <time>2025-03-20T15:59:05.000Z</time>
      </trkpt>
      <trkpt lat="44.41399" lon="4.49653">
        <ele>653</ele>
        <time>2025-03-20T15:59:19.000Z</time>
      </trkpt>
      <trkpt lat="44.4142" lon="4.49675">
        <ele>654</ele>
        <time>2025-03-20T16:00:00.000Z</time>
      </trkpt>
      <trkpt lat="44.41444" lon="4.49691">
        <ele>653</ele>
        <time>2025-03-20T16:00:31.000Z</time>
      </trkpt>
      <trkpt lat="44.4145" lon="4.49676">
        <ele>653</ele>
        <time>2025-03-20T16:00:45.000Z</time>
      </trkpt>
      <trkpt lat="44.41445" lon="4.49637">
        <ele>652</ele>
        <time>2025-03-20T16:01:18.000Z</time>
      </trkpt>
      <trkpt lat="44.41442" lon="4.49606">
        <ele>651</ele>
        <time>2025-03-20T16:01:43.000Z</time>
      </trkpt>
      <trkpt lat="44.41444" lon="4.4958">
        <ele>649</ele>
        <time>2025-03-20T16:02:05.000Z</time>
      </trkpt>
      <trkpt lat="44.41459" lon="4.49551">
        <ele>647</ele>
        <time>2025-03-20T16:02:34.000Z</time>
      </trkpt>
      <trkpt lat="44.41463" lon="4.49528">
        <ele>647</ele>
        <time>2025-03-20T16:02:54.000Z</time>
      </trkpt>
      <trkpt lat="44.41465" lon="4.49509">
        <ele>648</ele>
        <time>2025-03-20T16:03:20.000Z</time>
      </trkpt>
      <trkpt lat="44.41471" lon="4.49496">
        <ele>648</ele>
        <time>2025-03-20T16:03:33.000Z</time>
      </trkpt>
      <trkpt lat="44.41481" lon="4.49487">
        <ele>648</ele>
        <time>2025-03-20T16:03:47.000Z</time>
      </trkpt>
      <trkpt lat="44.41496" lon="4.49493">
        <ele>649</ele>
        <time>2025-03-20T16:04:15.000Z</time>
      </trkpt>
      <trkpt lat="44.41511" lon="4.49495">
        <ele>649</ele>
        <time>2025-03-20T16:04:33.000Z</time>
      </trkpt>
      <trkpt lat="44.41537" lon="4.49497">
        <ele>649</ele>
        <time>2025-03-20T16:05:03.000Z</time>
      </trkpt>
      <trkpt lat="44.41562" lon="4.49523">
        <ele>648</ele>
        <time>2025-03-20T16:05:39.000Z</time>
      </trkpt>
      <trkpt lat="44.41603" lon="4.49533">
        <ele>648</ele>
        <time>2025-03-20T16:06:27.000Z</time>
      </trkpt>
      <trkpt lat="44.41643" lon="4.49525">
        <ele>649</ele>
        <time>2025-03-20T16:07:23.000Z</time>
      </trkpt>
      <trkpt lat="44.41654" lon="4.49537">
        <ele>650</ele>
        <time>2025-03-20T16:07:50.000Z</time>
      </trkpt>
      <trkpt lat="44.41666" lon="4.49551">
        <ele>650</ele>
        <time>2025-03-20T16:08:07.000Z</time>
      </trkpt>
      <trkpt lat="44.41693" lon="4.49597">
        <ele>650</ele>
        <time>2025-03-20T16:08:56.000Z</time>
      </trkpt>
      <trkpt lat="44.41705" lon="4.49609">
        <ele>650</ele>
        <time>2025-03-20T16:09:13.000Z</time>
      </trkpt>
      <trkpt lat="44.41727" lon="4.49604">
        <ele>652</ele>
        <time>2025-03-20T16:09:59.000Z</time>
      </trkpt>
      <trkpt lat="44.41745" lon="4.49594">
        <ele>653</ele>
        <time>2025-03-20T16:10:31.000Z</time>
      </trkpt>
      <trkpt lat="44.41759" lon="4.49594">
        <ele>654</ele>
        <time>2025-03-20T16:10:58.000Z</time>
      </trkpt>
      <trkpt lat="44.4178" lon="4.49622">
        <ele>655</ele>
        <time>2025-03-20T16:11:41.000Z</time>
      </trkpt>
      <trkpt lat="44.4181" lon="4.4966">
        <ele>657</ele>
        <time>2025-03-20T16:12:47.000Z</time>
      </trkpt>
      <trkpt lat="44.41846" lon="4.49694">
        <ele>658</ele>
        <time>2025-03-20T16:13:48.000Z</time>
      </trkpt>
      <trkpt lat="44.41856" lon="4.49714">
        <ele>658</ele>
        <time>2025-03-20T16:14:08.000Z</time>
      </trkpt>
      <trkpt lat="44.41857" lon="4.49744">
        <ele>659</ele>
        <time>2025-03-20T16:14:43.000Z</time>
      </trkpt>
      <trkpt lat="44.41873" lon="4.49748">
        <ele>660</ele>
        <time>2025-03-20T16:15:12.000Z</time>
      </trkpt>
      <trkpt lat="44.41906" lon="4.49721">
        <ele>660</ele>
        <time>2025-03-20T16:15:56.000Z</time>
      </trkpt>
      <trkpt lat="44.41935" lon="4.49694">
        <ele>661</ele>
        <time>2025-03-20T16:16:46.000Z</time>
      </trkpt>
      <trkpt lat="44.41966" lon="4.49684">
        <ele>662</ele>
        <time>2025-03-20T16:17:33.000Z</time>
      </trkpt>
      <trkpt lat="44.41983" lon="4.49686">
        <ele>662</ele>
        <time>2025-03-20T16:17:52.000Z</time>
      </trkpt>
      <trkpt lat="44.41995" lon="4.49682">
        <ele>662</ele>
        <time>2025-03-20T16:18:06.000Z</time>
      </trkpt>
      <trkpt lat="44.42018" lon="4.4968">
        <ele>663</ele>
        <time>2025-03-20T16:18:42.000Z</time>
      </trkpt>
      <trkpt lat="44.42038" lon="4.49664">
        <ele>663</ele>
        <time>2025-03-20T16:19:08.000Z</time>
      </trkpt>
      <trkpt lat="44.4205" lon="4.49655">
        <ele>663</ele>
        <time>2025-03-20T16:19:23.000Z</time>
      </trkpt>
      <trkpt lat="44.42061" lon="4.49627">
        <ele>662</ele>
        <time>2025-03-20T16:19:49.000Z</time>
      </trkpt>
      <trkpt lat="44.42097" lon="4.49579">
        <ele>659</ele>
        <time>2025-03-20T16:20:46.000Z</time>
      </trkpt>
      <trkpt lat="44.42114" lon="4.49566">
        <ele>658</ele>
        <time>2025-03-20T16:21:08.000Z</time>
      </trkpt>
      <trkpt lat="44.42142" lon="4.4955">
        <ele>656</ele>
        <time>2025-03-20T16:21:43.000Z</time>
      </trkpt>
      <trkpt lat="44.42187" lon="4.49566">
        <ele>656</ele>
        <time>2025-03-20T16:22:36.000Z</time>
      </trkpt>
      <trkpt lat="44.42217" lon="4.49566">
        <ele>656</ele>
        <time>2025-03-20T16:23:10.000Z</time>
      </trkpt>
      <trkpt lat="44.42259" lon="4.49565">
        <ele>653</ele>
        <time>2025-03-20T16:23:59.000Z</time>
      </trkpt>
      <trkpt lat="44.42269" lon="4.49575">
        <ele>653</ele>
        <time>2025-03-20T16:24:13.000Z</time>
      </trkpt>
      <trkpt lat="44.42279" lon="4.49611">
        <ele>655</ele>
        <time>2025-03-20T16:25:05.000Z</time>
      </trkpt>
      <trkpt lat="44.4229" lon="4.49649">
        <ele>655</ele>
        <time>2025-03-20T16:25:39.000Z</time>
      </trkpt>
      <trkpt lat="44.42308" lon="4.49697">
        <ele>648</ele>
        <time>2025-03-20T16:26:23.000Z</time>
      </trkpt>
      <trkpt lat="44.42323" lon="4.49729">
        <ele>643</ele>
        <time>2025-03-20T16:26:55.000Z</time>
      </trkpt>
      <trkpt lat="44.42343" lon="4.49778">
        <ele>638</ele>
        <time>2025-03-20T16:27:41.000Z</time>
      </trkpt>
      <trkpt lat="44.42348" lon="4.49804">
        <ele>639</ele>
        <time>2025-03-20T16:28:13.000Z</time>
      </trkpt>
      <trkpt lat="44.42354" lon="4.49821">
        <ele>637</ele>
        <time>2025-03-20T16:28:29.000Z</time>
      </trkpt>
      <trkpt lat="44.42364" lon="4.49845">
        <ele>634</ele>
        <time>2025-03-20T16:28:52.000Z</time>
      </trkpt>
      <trkpt lat="44.42378" lon="4.49866">
        <ele>627</ele>
        <time>2025-03-20T16:29:15.000Z</time>
      </trkpt>
      <trkpt lat="44.42398" lon="4.49914">
        <ele>623</ele>
        <time>2025-03-20T16:30:01.000Z</time>
      </trkpt>
      <trkpt lat="44.42422" lon="4.49924">
        <ele>618</ele>
        <time>2025-03-20T16:30:30.000Z</time>
      </trkpt>
      <trkpt lat="44.42457" lon="4.49922">
        <ele>614</ele>
        <time>2025-03-20T16:31:10.000Z</time>
      </trkpt>
      <trkpt lat="44.42495" lon="4.49921">
        <ele>614</ele>
        <time>2025-03-20T16:31:54.000Z</time>
      </trkpt>
      <trkpt lat="44.42534" lon="4.49919">
        <ele>620</ele>
        <time>2025-03-20T16:33:41.000Z</time>
      </trkpt>
      <trkpt lat="44.42572" lon="4.49919">
        <ele>633</ele>
        <time>2025-03-20T16:36:39.000Z</time>
      </trkpt>
      <trkpt lat="44.42615" lon="4.49923">
        <ele>647</ele>
        <time>2025-03-20T16:39:52.000Z</time>
      </trkpt>
      <trkpt lat="44.42652" lon="4.49938">
        <ele>661</ele>
        <time>2025-03-20T16:43:00.000Z</time>
      </trkpt>
      <trkpt lat="44.42678" lon="4.49958">
        <ele>670</ele>
        <time>2025-03-20T16:45:06.000Z</time>
      </trkpt>
      <trkpt lat="44.42689" lon="4.49962">
        <ele>676</ele>
        <time>2025-03-20T16:46:21.000Z</time>
      </trkpt>
      <trkpt lat="44.42698" lon="4.49968">
        <ele>681</ele>
        <time>2025-03-20T16:47:23.000Z</time>
      </trkpt>
      <trkpt lat="44.42711" lon="4.49965">
        <ele>699</ele>
        <time>2025-03-20T16:50:44.000Z</time>
      </trkpt>
      <trkpt lat="44.42713" lon="4.49952">
        <ele>701</ele>
        <time>2025-03-20T16:51:15.000Z</time>
      </trkpt>
      <trkpt lat="44.42721" lon="4.4996">
        <ele>706</ele>
        <time>2025-03-20T16:52:18.000Z</time>
      </trkpt>
      <trkpt lat="44.4273" lon="4.49959">
        <ele>706</ele>
        <time>2025-03-20T16:52:28.000Z</time>
      </trkpt>
      <trkpt lat="44.42733" lon="4.49978">
        <ele>707</ele>
        <time>2025-03-20T16:52:54.000Z</time>
      </trkpt>
      <trkpt lat="44.42751" lon="4.50003">
        <ele>709</ele>
        <time>2025-03-20T16:53:44.000Z</time>
      </trkpt>
      <trkpt lat="44.42787" lon="4.50032">
        <ele>710</ele>
        <time>2025-03-20T16:54:42.000Z</time>
      </trkpt>
      <trkpt lat="44.42811" lon="4.50055">
        <ele>711</ele>
        <time>2025-03-20T16:55:25.000Z</time>
      </trkpt>
      <trkpt lat="44.42817" lon="4.50065">
        <ele>712</ele>
        <time>2025-03-20T16:55:46.000Z</time>
      </trkpt>
      <trkpt lat="44.42816" lon="4.50079">
        <ele>712</ele>
        <time>2025-03-20T16:55:58.000Z</time>
      </trkpt>
      <trkpt lat="44.42815" lon="4.501">
        <ele>713</ele>
        <time>2025-03-20T16:56:25.000Z</time>
      </trkpt>
      <trkpt lat="44.42808" lon="4.50152">
        <ele>715</ele>
        <time>2025-03-20T16:57:29.000Z</time>
      </trkpt>
      <trkpt lat="44.42805" lon="4.50173">
        <ele>715</ele>
        <time>2025-03-20T16:57:46.000Z</time>
      </trkpt>
      <trkpt lat="44.42813" lon="4.50191">
        <ele>716</ele>
        <time>2025-03-20T16:58:14.000Z</time>
      </trkpt>
      <trkpt lat="44.4282" lon="4.50214">
        <ele>716</ele>
        <time>2025-03-20T16:58:35.000Z</time>
      </trkpt>
      <trkpt lat="44.42826" lon="4.50239">
        <ele>715</ele>
        <time>2025-03-20T16:58:57.000Z</time>
      </trkpt>
      <trkpt lat="44.42837" lon="4.50237">
        <ele>715</ele>
        <time>2025-03-20T16:59:09.000Z</time>
      </trkpt>
      <trkpt lat="44.42845" lon="4.50231">
        <ele>715</ele>
        <time>2025-03-20T16:59:19.000Z</time>
      </trkpt>
      <trkpt lat="44.42858" lon="4.50225">
        <ele>714</ele>
        <time>2025-03-20T16:59:35.000Z</time>
      </trkpt>
      <trkpt lat="44.42877" lon="4.50222">
        <ele>714</ele>
        <time>2025-03-20T16:59:58.000Z</time>
      </trkpt>
      <trkpt lat="44.42892" lon="4.50221">
        <ele>716</ele>
        <time>2025-03-20T17:00:35.000Z</time>
      </trkpt>
      <trkpt lat="44.42899" lon="4.50231">
        <ele>717</ele>
        <time>2025-03-20T17:00:57.000Z</time>
      </trkpt>
      <trkpt lat="44.42905" lon="4.50239">
        <ele>717</ele>
        <time>2025-03-20T17:01:07.000Z</time>
      </trkpt>
      <trkpt lat="44.42919" lon="4.50255">
        <ele>718</ele>
        <time>2025-03-20T17:01:38.000Z</time>
      </trkpt>
      <trkpt lat="44.42911" lon="4.50246">
        <ele>718</ele>
        <time>2025-03-20T17:01:49.000Z</time>
      </trkpt>
      <trkpt lat="44.42893" lon="4.50222">
        <ele>716</ele>
        <time>2025-03-20T17:02:18.000Z</time>
      </trkpt>
      <trkpt lat="44.42876" lon="4.50223">
        <ele>714</ele>
        <time>2025-03-20T17:02:38.000Z</time>
      </trkpt>
      <trkpt lat="44.42851" lon="4.50227">
        <ele>714</ele>
        <time>2025-03-20T17:03:06.000Z</time>
      </trkpt>
      <trkpt lat="44.42838" lon="4.50237">
        <ele>715</ele>
        <time>2025-03-20T17:03:34.000Z</time>
      </trkpt>
      <trkpt lat="44.42827" lon="4.50242">
        <ele>714</ele>
        <time>2025-03-20T17:03:47.000Z</time>
      </trkpt>
      <trkpt lat="44.42818" lon="4.50209">
        <ele>716</ele>
        <time>2025-03-20T17:04:36.000Z</time>
      </trkpt>
      <trkpt lat="44.42806" lon="4.50176">
        <ele>716</ele>
        <time>2025-03-20T17:05:07.000Z</time>
      </trkpt>
      <trkpt lat="44.42809" lon="4.50139">
        <ele>713</ele>
        <time>2025-03-20T17:05:37.000Z</time>
      </trkpt>
      <trkpt lat="44.42815" lon="4.50092">
        <ele>712</ele>
        <time>2025-03-20T17:06:16.000Z</time>
      </trkpt>
      <trkpt lat="44.42815" lon="4.50061">
        <ele>711</ele>
        <time>2025-03-20T17:06:41.000Z</time>
      </trkpt>
      <trkpt lat="44.42793" lon="4.50037">
        <ele>711</ele>
        <time>2025-03-20T17:07:12.000Z</time>
      </trkpt>
      <trkpt lat="44.4276" lon="4.5001">
        <ele>710</ele>
        <time>2025-03-20T17:07:56.000Z</time>
      </trkpt>
      <trkpt lat="44.42739" lon="4.49986">
        <ele>708</ele>
        <time>2025-03-20T17:08:27.000Z</time>
      </trkpt>
      <trkpt lat="44.42733" lon="4.49971">
        <ele>707</ele>
        <time>2025-03-20T17:08:42.000Z</time>
      </trkpt>
      <trkpt lat="44.42729" lon="4.49958">
        <ele>706</ele>
        <time>2025-03-20T17:08:53.000Z</time>
      </trkpt>
      <trkpt lat="44.4272" lon="4.49962">
        <ele>706</ele>
        <time>2025-03-20T17:09:04.000Z</time>
      </trkpt>
      <trkpt lat="44.42713" lon="4.49953">
        <ele>701</ele>
        <time>2025-03-20T17:09:14.000Z</time>
      </trkpt>
      <trkpt lat="44.42712" lon="4.49965">
        <ele>700</ele>
        <time>2025-03-20T17:09:23.000Z</time>
      </trkpt>
      <trkpt lat="44.42698" lon="4.49968">
        <ele>682</ele>
        <time>2025-03-20T17:09:39.000Z</time>
      </trkpt>
      <trkpt lat="44.42688" lon="4.49959">
        <ele>676</ele>
        <time>2025-03-20T17:09:53.000Z</time>
      </trkpt>
      <trkpt lat="44.42677" lon="4.49959">
        <ele>670</ele>
        <time>2025-03-20T17:10:05.000Z</time>
      </trkpt>
      <trkpt lat="44.42655" lon="4.49938">
        <ele>662</ele>
        <time>2025-03-20T17:10:36.000Z</time>
      </trkpt>
      <trkpt lat="44.4263" lon="4.49926">
        <ele>651</ele>
        <time>2025-03-20T17:11:07.000Z</time>
      </trkpt>
      <trkpt lat="44.42583" lon="4.49919">
        <ele>635</ele>
        <time>2025-03-20T17:12:01.000Z</time>
      </trkpt>
      <trkpt lat="44.42525" lon="4.4992">
        <ele>618</ele>
        <time>2025-03-20T17:13:07.000Z</time>
      </trkpt>
      <trkpt lat="44.42495" lon="4.4992">
        <ele>614</ele>
        <time>2025-03-20T17:13:41.000Z</time>
      </trkpt>
      <trkpt lat="44.42494" lon="4.49931">
        <ele>614</ele>
        <time>2025-03-20T17:13:50.000Z</time>
      </trkpt>
      <trkpt lat="44.42475" lon="4.49939">
        <ele>614</ele>
        <time>2025-03-20T17:14:13.000Z</time>
      </trkpt>
      <trkpt lat="44.42463" lon="4.49945">
        <ele>614</ele>
        <time>2025-03-20T17:14:27.000Z</time>
      </trkpt>
      <trkpt lat="44.42453" lon="4.49946">
        <ele>614</ele>
        <time>2025-03-20T17:14:39.000Z</time>
      </trkpt>
      <trkpt lat="44.42446" lon="4.4995">
        <ele>614</ele>
        <time>2025-03-20T17:14:47.000Z</time>
      </trkpt>
      <trkpt lat="44.42443" lon="4.49959">
        <ele>615</ele>
        <time>2025-03-20T17:15:06.000Z</time>
      </trkpt>
      <trkpt lat="44.42477" lon="4.49971">
        <ele>610</ele>
        <time>2025-03-20T17:15:46.000Z</time>
      </trkpt>
      <trkpt lat="44.42491" lon="4.49973">
        <ele>607</ele>
        <time>2025-03-20T17:16:02.000Z</time>
      </trkpt>
      <trkpt lat="44.42505" lon="4.49982">
        <ele>605</ele>
        <time>2025-03-20T17:16:19.000Z</time>
      </trkpt>
      <trkpt lat="44.42523" lon="4.49994">
        <ele>603</ele>
        <time>2025-03-20T17:16:42.000Z</time>
      </trkpt>
      <trkpt lat="44.42551" lon="4.50038">
        <ele>598</ele>
        <time>2025-03-20T17:17:30.000Z</time>
      </trkpt>
      <trkpt lat="44.42565" lon="4.50066">
        <ele>595</ele>
        <time>2025-03-20T17:17:58.000Z</time>
      </trkpt>
      <trkpt lat="44.42577" lon="4.50115">
        <ele>594</ele>
        <time>2025-03-20T17:18:40.000Z</time>
      </trkpt>
      <trkpt lat="44.42593" lon="4.50173">
        <ele>593</ele>
        <time>2025-03-20T17:19:31.000Z</time>
      </trkpt>
      <trkpt lat="44.42608" lon="4.50229">
        <ele>591</ele>
        <time>2025-03-20T17:20:19.000Z</time>
      </trkpt>
      <trkpt lat="44.42613" lon="4.50265">
        <ele>590</ele>
        <time>2025-03-20T17:20:49.000Z</time>
      </trkpt>
      <trkpt lat="44.42613" lon="4.50289">
        <ele>590</ele>
        <time>2025-03-20T17:21:09.000Z</time>
      </trkpt>
      <trkpt lat="44.42581" lon="4.50351">
        <ele>582</ele>
        <time>2025-03-20T17:22:12.000Z</time>
      </trkpt>
      <trkpt lat="44.42564" lon="4.5039">
        <ele>583</ele>
        <time>2025-03-20T17:22:59.000Z</time>
      </trkpt>
      <trkpt lat="44.42547" lon="4.50431">
        <ele>581</ele>
        <time>2025-03-20T17:23:38.000Z</time>
      </trkpt>
      <trkpt lat="44.42533" lon="4.50468">
        <ele>576</ele>
        <time>2025-03-20T17:24:12.000Z</time>
      </trkpt>
      <trkpt lat="44.42535" lon="4.50546">
        <ele>572</ele>
        <time>2025-03-20T17:25:16.000Z</time>
      </trkpt>
      <trkpt lat="44.4254" lon="4.50573">
        <ele>569</ele>
        <time>2025-03-20T17:25:39.000Z</time>
      </trkpt>
      <trkpt lat="44.42547" lon="4.50598">
        <ele>568</ele>
        <time>2025-03-20T17:26:01.000Z</time>
      </trkpt>
      <trkpt lat="44.42558" lon="4.50643">
        <ele>562</ele>
        <time>2025-03-20T17:26:40.000Z</time>
      </trkpt>
      <trkpt lat="44.42566" lon="4.50703">
        <ele>549</ele>
        <time>2025-03-20T17:27:29.000Z</time>
      </trkpt>
      <trkpt lat="44.42576" lon="4.50802">
        <ele>520</ele>
        <time>2025-03-20T17:28:51.000Z</time>
      </trkpt>
      <trkpt lat="44.42577" lon="4.50849">
        <ele>518</ele>
        <time>2025-03-20T17:29:30.000Z</time>
      </trkpt>
      <trkpt lat="44.42582" lon="4.50902">
        <ele>519</ele>
        <time>2025-03-20T17:30:24.000Z</time>
      </trkpt>
      <trkpt lat="44.42577" lon="4.50928">
        <ele>520</ele>
        <time>2025-03-20T17:30:56.000Z</time>
      </trkpt>
      <trkpt lat="44.4257" lon="4.50952">
        <ele>522</ele>
        <time>2025-03-20T17:31:38.000Z</time>
      </trkpt>
      <trkpt lat="44.42556" lon="4.5101">
        <ele>527</ele>
        <time>2025-03-20T17:33:20.000Z</time>
      </trkpt>
      <trkpt lat="44.42544" lon="4.51038">
        <ele>527</ele>
        <time>2025-03-20T17:33:46.000Z</time>
      </trkpt>
      <trkpt lat="44.42538" lon="4.51054">
        <ele>527</ele>
        <time>2025-03-20T17:34:01.000Z</time>
      </trkpt>
      <trkpt lat="44.42518" lon="4.51088">
        <ele>525</ele>
        <time>2025-03-20T17:34:37.000Z</time>
      </trkpt>
      <trkpt lat="44.42501" lon="4.51106">
        <ele>523</ele>
        <time>2025-03-20T17:35:02.000Z</time>
      </trkpt>
      <trkpt lat="44.42476" lon="4.51121">
        <ele>520</ele>
        <time>2025-03-20T17:35:33.000Z</time>
      </trkpt>
      <trkpt lat="44.42441" lon="4.51132">
        <ele>515</ele>
        <time>2025-03-20T17:36:14.000Z</time>
      </trkpt>
      <trkpt lat="44.42413" lon="4.51129">
        <ele>511</ele>
        <time>2025-03-20T17:36:46.000Z</time>
      </trkpt>
      <trkpt lat="44.42399" lon="4.51138">
        <ele>508</ele>
        <time>2025-03-20T17:37:03.000Z</time>
      </trkpt>
      <trkpt lat="44.42379" lon="4.51151">
        <ele>505</ele>
        <time>2025-03-20T17:37:28.000Z</time>
      </trkpt>
      <trkpt lat="44.42362" lon="4.51172">
        <ele>501</ele>
        <time>2025-03-20T17:37:54.000Z</time>
      </trkpt>
      <trkpt lat="44.42346" lon="4.51194">
        <ele>498</ele>
        <time>2025-03-20T17:38:19.000Z</time>
      </trkpt>
      <trkpt lat="44.42338" lon="4.51202">
        <ele>496</ele>
        <time>2025-03-20T17:38:31.000Z</time>
      </trkpt>
      <trkpt lat="44.42314" lon="4.5121">
        <ele>494</ele>
        <time>2025-03-20T17:38:58.000Z</time>
      </trkpt>
      <trkpt lat="44.42292" lon="4.51222">
        <ele>491</ele>
        <time>2025-03-20T17:39:25.000Z</time>
      </trkpt>
      <trkpt lat="44.42274" lon="4.51222">
        <ele>489</ele>
        <time>2025-03-20T17:39:46.000Z</time>
      </trkpt>
      <trkpt lat="44.42242" lon="4.51235">
        <ele>487</ele>
        <time>2025-03-20T17:40:24.000Z</time>
      </trkpt>
      <trkpt lat="44.42212" lon="4.51243">
        <ele>484</ele>
        <time>2025-03-20T17:40:59.000Z</time>
      </trkpt>
      <trkpt lat="44.42182" lon="4.51249">
        <ele>482</ele>
        <time>2025-03-20T17:41:33.000Z</time>
      </trkpt>
      <trkpt lat="44.42154" lon="4.5126">
        <ele>481</ele>
        <time>2025-03-20T17:42:07.000Z</time>
      </trkpt>
      <trkpt lat="44.42141" lon="4.51267">
        <ele>480</ele>
        <time>2025-03-20T17:42:22.000Z</time>
      </trkpt>
      <trkpt lat="44.4211" lon="4.51299">
        <ele>478</ele>
        <time>2025-03-20T17:43:07.000Z</time>
      </trkpt>
      <trkpt lat="44.42056" lon="4.51352">
        <ele>469</ele>
        <time>2025-03-20T17:44:22.000Z</time>
      </trkpt>
      <trkpt lat="44.42053" lon="4.51373">
        <ele>467</ele>
        <time>2025-03-20T17:44:40.000Z</time>
      </trkpt>
      <trkpt lat="44.42058" lon="4.51409">
        <ele>463</ele>
        <time>2025-03-20T17:45:10.000Z</time>
      </trkpt>
      <trkpt lat="44.4207" lon="4.51476">
        <ele>459</ele>
        <time>2025-03-20T17:46:07.000Z</time>
      </trkpt>
      <trkpt lat="44.42076" lon="4.51503">
        <ele>457</ele>
        <time>2025-03-20T17:46:29.000Z</time>
      </trkpt>
      <trkpt lat="44.42081" lon="4.51546">
        <ele>456</ele>
        <time>2025-03-20T17:47:05.000Z</time>
      </trkpt>
      <trkpt lat="44.42116" lon="4.51623">
        <ele>452</ele>
        <time>2025-03-20T17:48:20.000Z</time>
      </trkpt>
      <trkpt lat="44.42131" lon="4.51663">
        <ele>449</ele>
        <time>2025-03-20T17:48:57.000Z</time>
      </trkpt>
      <trkpt lat="44.42137" lon="4.51693">
        <ele>448</ele>
        <time>2025-03-20T17:49:22.000Z</time>
      </trkpt>
      <trkpt lat="44.42146" lon="4.51745">
        <ele>444</ele>
        <time>2025-03-20T17:50:06.000Z</time>
      </trkpt>
      <trkpt lat="44.42153" lon="4.51772">
        <ele>439</ele>
        <time>2025-03-20T17:50:30.000Z</time>
      </trkpt>
      <trkpt lat="44.42159" lon="4.51805">
        <ele>437</ele>
        <time>2025-03-20T17:50:58.000Z</time>
      </trkpt>
      <trkpt lat="44.42164" lon="4.51885">
        <ele>433</ele>
        <time>2025-03-20T17:52:04.000Z</time>
      </trkpt>
      <trkpt lat="44.42164" lon="4.51939">
        <ele>429</ele>
        <time>2025-03-20T17:52:48.000Z</time>
      </trkpt>
      <trkpt lat="44.42155" lon="4.51966">
        <ele>431</ele>
        <time>2025-03-20T17:53:33.000Z</time>
      </trkpt>
      <trkpt lat="44.42147" lon="4.51991">
        <ele>429</ele>
        <time>2025-03-20T17:53:56.000Z</time>
      </trkpt>
      <trkpt lat="44.42126" lon="4.52033">
        <ele>424</ele>
        <time>2025-03-20T17:54:38.000Z</time>
      </trkpt>
      <trkpt lat="44.42111" lon="4.52054">
        <ele>422</ele>
        <time>2025-03-20T17:55:02.000Z</time>
      </trkpt>
      <trkpt lat="44.42093" lon="4.52076">
        <ele>418</ele>
        <time>2025-03-20T17:55:29.000Z</time>
      </trkpt>
      <trkpt lat="44.42081" lon="4.52098">
        <ele>417</ele>
        <time>2025-03-20T17:55:52.000Z</time>
      </trkpt>
      <trkpt lat="44.42079" lon="4.52122">
        <ele>416</ele>
        <time>2025-03-20T17:56:12.000Z</time>
      </trkpt>
      <trkpt lat="44.42081" lon="4.52162">
        <ele>413</ele>
        <time>2025-03-20T17:56:45.000Z</time>
      </trkpt>
      <trkpt lat="44.42071" lon="4.52186">
        <ele>411</ele>
        <time>2025-03-20T17:57:08.000Z</time>
      </trkpt>
      <trkpt lat="44.42044" lon="4.52216">
        <ele>408</ele>
        <time>2025-03-20T17:57:47.000Z</time>
      </trkpt>
      <trkpt lat="44.42025" lon="4.52237">
        <ele>406</ele>
        <time>2025-03-20T17:58:15.000Z</time>
      </trkpt>
      <trkpt lat="44.4201" lon="4.52252">
        <ele>405</ele>
        <time>2025-03-20T17:58:36.000Z</time>
      </trkpt>
      <trkpt lat="44.41991" lon="4.5229">
        <ele>402</ele>
        <time>2025-03-20T17:59:14.000Z</time>
      </trkpt>
      <trkpt lat="44.41984" lon="4.52301">
        <ele>401</ele>
        <time>2025-03-20T17:59:27.000Z</time>
      </trkpt>
      <trkpt lat="44.41962" lon="4.52314">
        <ele>400</ele>
        <time>2025-03-20T17:59:54.000Z</time>
      </trkpt>
      <trkpt lat="44.4194" lon="4.52334">
        <ele>399</ele>
        <time>2025-03-20T18:00:25.000Z</time>
      </trkpt>
      <trkpt lat="44.41914" lon="4.52348">
        <ele>397</ele>
        <time>2025-03-20T18:00:56.000Z</time>
      </trkpt>
      <trkpt lat="44.41854" lon="4.52335">
        <ele>396</ele>
        <time>2025-03-20T18:02:05.000Z</time>
      </trkpt>
      <trkpt lat="44.41811" lon="4.52326">
        <ele>397</ele>
        <time>2025-03-20T18:03:05.000Z</time>
      </trkpt>
      <trkpt lat="44.41786" lon="4.52311">
        <ele>397</ele>
        <time>2025-03-20T18:03:37.000Z</time>
      </trkpt>
      <trkpt lat="44.41771" lon="4.52319">
        <ele>397</ele>
        <time>2025-03-20T18:03:55.000Z</time>
      </trkpt>
      <trkpt lat="44.41753" lon="4.52319">
        <ele>397</ele>
        <time>2025-03-20T18:04:15.000Z</time>
      </trkpt>
      <trkpt lat="44.41729" lon="4.52321">
        <ele>397</ele>
        <time>2025-03-20T18:04:43.000Z</time>
      </trkpt>
      <trkpt lat="44.41707" lon="4.52322">
        <ele>397</ele>
        <time>2025-03-20T18:05:08.000Z</time>
      </trkpt>
      <trkpt lat="44.41693" lon="4.52319">
        <ele>397</ele>
        <time>2025-03-20T18:05:24.000Z</time>
      </trkpt>
      <trkpt lat="44.41664" lon="4.52311">
        <ele>397</ele>
        <time>2025-03-20T18:05:58.000Z</time>
      </trkpt>
      <trkpt lat="44.41647" lon="4.52298">
        <ele>398</ele>
        <time>2025-03-20T18:06:30.000Z</time>
      </trkpt>
      <trkpt lat="44.41615" lon="4.52271">
        <ele>395</ele>
        <time>2025-03-20T18:07:13.000Z</time>
      </trkpt>
      <trkpt lat="44.41611" lon="4.52264">
        <ele>395</ele>
        <time>2025-03-20T18:07:20.000Z</time>
      </trkpt>
      <trkpt lat="44.41592" lon="4.52266">
        <ele>391</ele>
        <time>2025-03-20T18:07:41.000Z</time>
      </trkpt>
      <trkpt lat="44.41579" lon="4.52261">
        <ele>389</ele>
        <time>2025-03-20T18:07:57.000Z</time>
      </trkpt>
      <trkpt lat="44.41562" lon="4.52259">
        <ele>386</ele>
        <time>2025-03-20T18:08:16.000Z</time>
      </trkpt>
      <trkpt lat="44.41543" lon="4.52257">
        <ele>382</ele>
        <time>2025-03-20T18:08:37.000Z</time>
      </trkpt>
      <trkpt lat="44.41526" lon="4.52259">
        <ele>379</ele>
        <time>2025-03-20T18:08:57.000Z</time>
      </trkpt>
      <trkpt lat="44.4149" lon="4.52261">
        <ele>375</ele>
        <time>2025-03-20T18:09:38.000Z</time>
      </trkpt>
      <trkpt lat="44.41471" lon="4.52266">
        <ele>373</ele>
        <time>2025-03-20T18:10:00.000Z</time>
      </trkpt>
      <trkpt lat="44.41456" lon="4.52278">
        <ele>370</ele>
        <time>2025-03-20T18:10:20.000Z</time>
      </trkpt>
      <trkpt lat="44.41442" lon="4.52278">
        <ele>366</ele>
        <time>2025-03-20T18:10:36.000Z</time>
      </trkpt>
      <trkpt lat="44.41434" lon="4.5227">
        <ele>365</ele>
        <time>2025-03-20T18:10:47.000Z</time>
      </trkpt>
      <trkpt lat="44.41427" lon="4.52264">
        <ele>365</ele>
        <time>2025-03-20T18:10:56.000Z</time>
      </trkpt>
      <trkpt lat="44.41423" lon="4.52269">
        <ele>365</ele>
        <time>2025-03-20T18:11:02.000Z</time>
      </trkpt>
      <trkpt lat="44.41415" lon="4.52278">
        <ele>365</ele>
        <time>2025-03-20T18:11:14.000Z</time>
      </trkpt>
      <trkpt lat="44.41398" lon="4.52289">
        <ele>365</ele>
        <time>2025-03-20T18:11:35.000Z</time>
      </trkpt>
      <trkpt lat="44.4138" lon="4.52295">
        <ele>365</ele>
        <time>2025-03-20T18:11:56.000Z</time>
      </trkpt>
      <trkpt lat="44.41363" lon="4.52304">
        <ele>365</ele>
        <time>2025-03-20T18:12:17.000Z</time>
      </trkpt>
      <trkpt lat="44.41351" lon="4.5233">
        <ele>366</ele>
        <time>2025-03-20T18:12:53.000Z</time>
      </trkpt>
      <trkpt lat="44.41344" lon="4.52362">
        <ele>370</ele>
        <time>2025-03-20T18:14:02.000Z</time>
      </trkpt>
      <trkpt lat="44.41333" lon="4.52392">
        <ele>375</ele>
        <time>2025-03-20T18:15:21.000Z</time>
      </trkpt>
      <trkpt lat="44.4133" lon="4.5241">
        <ele>377</ele>
        <time>2025-03-20T18:15:57.000Z</time>
      </trkpt>
      <trkpt lat="44.41321" lon="4.52431">
        <ele>379</ele>
        <time>2025-03-20T18:16:38.000Z</time>
      </trkpt>
      <trkpt lat="44.41304" lon="4.52469">
        <ele>380</ele>
        <time>2025-03-20T18:17:25.000Z</time>
      </trkpt>
      <trkpt lat="44.41292" lon="4.52487">
        <ele>382</ele>
        <time>2025-03-20T18:18:06.000Z</time>
      </trkpt>
      <trkpt lat="44.41279" lon="4.52499">
        <ele>382</ele>
        <time>2025-03-20T18:18:24.000Z</time>
      </trkpt>
      <trkpt lat="44.41267" lon="4.5252">
        <ele>382</ele>
        <time>2025-03-20T18:18:46.000Z</time>
      </trkpt>
      <trkpt lat="44.41261" lon="4.5254">
        <ele>383</ele>
        <time>2025-03-20T18:19:14.000Z</time>
      </trkpt>
      <trkpt lat="44.41258" lon="4.52564">
        <ele>382</ele>
        <time>2025-03-20T18:19:34.000Z</time>
      </trkpt>
      <trkpt lat="44.41235" lon="4.52599">
        <ele>381</ele>
        <time>2025-03-20T18:20:12.000Z</time>
      </trkpt>
      <trkpt lat="44.41218" lon="4.52624">
        <ele>379</ele>
        <time>2025-03-20T18:20:41.000Z</time>
      </trkpt>
      <trkpt lat="44.41208" lon="4.5265">
        <ele>377</ele>
        <time>2025-03-20T18:21:04.000Z</time>
      </trkpt>
      <trkpt lat="44.41194" lon="4.52687">
        <ele>375</ele>
        <time>2025-03-20T18:21:38.000Z</time>
      </trkpt>
      <trkpt lat="44.41179" lon="4.52718">
        <ele>372</ele>
        <time>2025-03-20T18:22:09.000Z</time>
      </trkpt>
      <trkpt lat="44.41163" lon="4.52749">
        <ele>370</ele>
        <time>2025-03-20T18:22:40.000Z</time>
      </trkpt>
      <trkpt lat="44.41152" lon="4.52781">
        <ele>369</ele>
        <time>2025-03-20T18:23:09.000Z</time>
      </trkpt>
      <trkpt lat="44.4115" lon="4.52747">
        <ele>370</ele>
        <time>2025-03-20T18:23:47.000Z</time>
      </trkpt>
      <trkpt lat="44.41144" lon="4.52715">
        <ele>371</ele>
        <time>2025-03-20T18:24:25.000Z</time>
      </trkpt>
      <trkpt lat="44.41133" lon="4.52688">
        <ele>371</ele>
        <time>2025-03-20T18:24:50.000Z</time>
      </trkpt>
      <trkpt lat="44.41117" lon="4.52636">
        <ele>372</ele>
        <time>2025-03-20T18:25:46.000Z</time>
      </trkpt>
      <trkpt lat="44.41115" lon="4.52612">
        <ele>372</ele>
        <time>2025-03-20T18:26:06.000Z</time>
      </trkpt>
      <trkpt lat="44.41112" lon="4.52598">
        <ele>372</ele>
        <time>2025-03-20T18:26:18.000Z</time>
      </trkpt>
      <trkpt lat="44.411" lon="4.5257">
        <ele>373</ele>
        <time>2025-03-20T18:26:54.000Z</time>
      </trkpt>
      <trkpt lat="44.41092" lon="4.52536">
        <ele>375</ele>
        <time>2025-03-20T18:27:44.000Z</time>
      </trkpt>
      <trkpt lat="44.41075" lon="4.52488">
        <ele>376</ele>
        <time>2025-03-20T18:28:38.000Z</time>
      </trkpt>
      <trkpt lat="44.41066" lon="4.52463">
        <ele>377</ele>
        <time>2025-03-20T18:29:11.000Z</time>
      </trkpt>
      <trkpt lat="44.41055" lon="4.52443">
        <ele>377</ele>
        <time>2025-03-20T18:29:32.000Z</time>
      </trkpt>
      <trkpt lat="44.41034" lon="4.52382">
        <ele>378</ele>
        <time>2025-03-20T18:30:37.000Z</time>
      </trkpt>
      <trkpt lat="44.41023" lon="4.52347">
        <ele>378</ele>
        <time>2025-03-20T18:31:09.000Z</time>
      </trkpt>
      <trkpt lat="44.41015" lon="4.52313">
        <ele>378</ele>
        <time>2025-03-20T18:31:38.000Z</time>
      </trkpt>
      <trkpt lat="44.41002" lon="4.5226">
        <ele>378</ele>
        <time>2025-03-20T18:32:24.000Z</time>
      </trkpt>
      <trkpt lat="44.41002" lon="4.52224">
        <ele>377</ele>
        <time>2025-03-20T18:32:53.000Z</time>
      </trkpt>
      <trkpt lat="44.41013" lon="4.522">
        <ele>377</ele>
        <time>2025-03-20T18:33:17.000Z</time>
      </trkpt>
      <trkpt lat="44.41016" lon="4.5218">
        <ele>377</ele>
        <time>2025-03-20T18:33:33.000Z</time>
      </trkpt>
      <trkpt lat="44.41014" lon="4.52161">
        <ele>378</ele>
        <time>2025-03-20T18:33:59.000Z</time>
      </trkpt>
      <trkpt lat="44.41005" lon="4.5215">
        <ele>378</ele>
        <time>2025-03-20T18:34:13.000Z</time>
      </trkpt>
      <trkpt lat="44.40949" lon="4.52102">
        <ele>378</ele>
        <time>2025-03-20T18:35:29.000Z</time>
      </trkpt>
      <trkpt lat="44.4093" lon="4.52087">
        <ele>378</ele>
        <time>2025-03-20T18:35:54.000Z</time>
      </trkpt>
      <trkpt lat="44.40916" lon="4.5207">
        <ele>377</ele>
        <time>2025-03-20T18:36:15.000Z</time>
      </trkpt>
      <trkpt lat="44.40903" lon="4.52038">
        <ele>376</ele>
        <time>2025-03-20T18:36:45.000Z</time>
      </trkpt>
      <trkpt lat="44.40891" lon="4.52017">
        <ele>375</ele>
        <time>2025-03-20T18:37:07.000Z</time>
      </trkpt>
      <trkpt lat="44.4087" lon="4.52035">
        <ele>374</ele>
        <time>2025-03-20T18:37:35.000Z</time>
      </trkpt>
      <trkpt lat="44.40839" lon="4.52068">
        <ele>372</ele>
        <time>2025-03-20T18:38:20.000Z</time>
      </trkpt>
      <trkpt lat="44.40815" lon="4.52093">
        <ele>372</ele>
        <time>2025-03-20T18:38:54.000Z</time>
      </trkpt>
      <trkpt lat="44.40807" lon="4.52109">
        <ele>371</ele>
        <time>2025-03-20T18:39:10.000Z</time>
      </trkpt>
      <trkpt lat="44.40811" lon="4.52124">
        <ele>372</ele>
        <time>2025-03-20T18:39:33.000Z</time>
      </trkpt>
      <trkpt lat="44.40824" lon="4.52143">
        <ele>372</ele>
        <time>2025-03-20T18:39:55.000Z</time>
      </trkpt>
      <trkpt lat="44.40833" lon="4.52158">
        <ele>372</ele>
        <time>2025-03-20T18:40:11.000Z</time>
      </trkpt>
      <trkpt lat="44.40833" lon="4.52166">
        <ele>372</ele>
        <time>2025-03-20T18:40:18.000Z</time>
      </trkpt>
      <trkpt lat="44.40816" lon="4.52187">
        <ele>371</ele>
        <time>2025-03-20T18:40:45.000Z</time>
      </trkpt>
      <trkpt lat="44.40798" lon="4.52202">
        <ele>370</ele>
        <time>2025-03-20T18:41:08.000Z</time>
      </trkpt>
      <trkpt lat="44.40782" lon="4.52228">
        <ele>370</ele>
        <time>2025-03-20T18:41:36.000Z</time>
      </trkpt>
      <trkpt lat="44.40764" lon="4.52259">
        <ele>369</ele>
        <time>2025-03-20T18:42:08.000Z</time>
      </trkpt>
      <trkpt lat="44.40748" lon="4.52292">
        <ele>368</ele>
        <time>2025-03-20T18:42:41.000Z</time>
      </trkpt>
      <trkpt lat="44.4074" lon="4.52329">
        <ele>367</ele>
        <time>2025-03-20T18:43:13.000Z</time>
      </trkpt>
      <trkpt lat="44.40728" lon="4.52363">
        <ele>366</ele>
        <time>2025-03-20T18:43:43.000Z</time>
      </trkpt>
      <trkpt lat="44.40713" lon="4.52395">
        <ele>365</ele>
        <time>2025-03-20T18:44:15.000Z</time>
      </trkpt>
      <trkpt lat="44.40694" lon="4.52426">
        <ele>364</ele>
        <time>2025-03-20T18:44:49.000Z</time>
      </trkpt>
      <trkpt lat="44.40668" lon="4.52473">
        <ele>363</ele>
        <time>2025-03-20T18:45:38.000Z</time>
      </trkpt>
      <trkpt lat="44.40653" lon="4.52499">
        <ele>362</ele>
        <time>2025-03-20T18:46:06.000Z</time>
      </trkpt>
      <trkpt lat="44.40641" lon="4.52522">
        <ele>362</ele>
        <time>2025-03-20T18:46:30.000Z</time>
      </trkpt>
      <trkpt lat="44.40628" lon="4.52533">
        <ele>361</ele>
        <time>2025-03-20T18:46:47.000Z</time>
      </trkpt>
      <trkpt lat="44.40588" lon="4.52516">
        <ele>359</ele>
        <time>2025-03-20T18:47:35.000Z</time>
      </trkpt>
      <trkpt lat="44.4057" lon="4.52503">
        <ele>358</ele>
        <time>2025-03-20T18:47:59.000Z</time>
      </trkpt>
      <trkpt lat="44.40564" lon="4.52485">
        <ele>356</ele>
        <time>2025-03-20T18:48:15.000Z</time>
      </trkpt>
      <trkpt lat="44.40559" lon="4.52476">
        <ele>353</ele>
        <time>2025-03-20T18:48:25.000Z</time>
      </trkpt>
      <trkpt lat="44.40552" lon="4.52474">
        <ele>353</ele>
        <time>2025-03-20T18:48:33.000Z</time>
      </trkpt>
      <trkpt lat="44.40536" lon="4.52479">
        <ele>352</ele>
        <time>2025-03-20T18:48:52.000Z</time>
      </trkpt>
      <trkpt lat="44.40521" lon="4.52482">
        <ele>350</ele>
        <time>2025-03-20T18:49:09.000Z</time>
      </trkpt>
      <trkpt lat="44.40504" lon="4.52487">
        <ele>348</ele>
        <time>2025-03-20T18:49:28.000Z</time>
      </trkpt>
      <trkpt lat="44.40486" lon="4.52494">
        <ele>345</ele>
        <time>2025-03-20T18:49:49.000Z</time>
      </trkpt>
      <trkpt lat="44.40473" lon="4.52497">
        <ele>344</ele>
        <time>2025-03-20T18:50:04.000Z</time>
      </trkpt>
      <trkpt lat="44.40465" lon="4.52477">
        <ele>343</ele>
        <time>2025-03-20T18:50:23.000Z</time>
      </trkpt>
      <trkpt lat="44.40455" lon="4.52452">
        <ele>344</ele>
        <time>2025-03-20T18:50:57.000Z</time>
      </trkpt>
      <trkpt lat="44.40447" lon="4.52404">
        <ele>349</ele>
        <time>2025-03-20T18:52:29.000Z</time>
      </trkpt>
      <trkpt lat="44.40443" lon="4.52384">
        <ele>351</ele>
        <time>2025-03-20T18:53:07.000Z</time>
      </trkpt>
      <trkpt lat="44.40434" lon="4.5236">
        <ele>354</ele>
        <time>2025-03-20T18:54:00.000Z</time>
      </trkpt>
      <trkpt lat="44.40426" lon="4.52342">
        <ele>357</ele>
        <time>2025-03-20T18:54:48.000Z</time>
      </trkpt>
      <trkpt lat="44.40417" lon="4.52312">
        <ele>359</ele>
        <time>2025-03-20T18:55:35.000Z</time>
      </trkpt>
      <trkpt lat="44.40404" lon="4.52283">
        <ele>361</ele>
        <time>2025-03-20T18:56:23.000Z</time>
      </trkpt>
      <trkpt lat="44.40398" lon="4.52235">
        <ele>363</ele>
        <time>2025-03-20T18:57:24.000Z</time>
      </trkpt>
      <trkpt lat="44.4039" lon="4.52206">
        <ele>363</ele>
        <time>2025-03-20T18:57:49.000Z</time>
      </trkpt>
      <trkpt lat="44.40372" lon="4.52164">
        <ele>365</ele>
        <time>2025-03-20T18:58:50.000Z</time>
      </trkpt>
      <trkpt lat="44.40352" lon="4.52122">
        <ele>366</ele>
        <time>2025-03-20T18:59:42.000Z</time>
      </trkpt>
      <trkpt lat="44.40317" lon="4.52068">
        <ele>367</ele>
        <time>2025-03-20T19:00:51.000Z</time>
      </trkpt>
      <trkpt lat="44.40296" lon="4.52035">
        <ele>367</ele>
        <time>2025-03-20T19:01:27.000Z</time>
      </trkpt>
      <trkpt lat="44.40273" lon="4.52005">
        <ele>367</ele>
        <time>2025-03-20T19:02:04.000Z</time>
      </trkpt>
      <trkpt lat="44.40254" lon="4.51982">
        <ele>367</ele>
        <time>2025-03-20T19:02:33.000Z</time>
      </trkpt>
      <trkpt lat="44.40239" lon="4.51951">
        <ele>367</ele>
        <time>2025-03-20T19:03:04.000Z</time>
      </trkpt>
      <trkpt lat="44.40223" lon="4.5192">
        <ele>368</ele>
        <time>2025-03-20T19:03:45.000Z</time>
      </trkpt>
      <trkpt lat="44.4021" lon="4.5189">
        <ele>368</ele>
        <time>2025-03-20T19:04:14.000Z</time>
      </trkpt>
      <trkpt lat="44.4019" lon="4.51829">
        <ele>368</ele>
        <time>2025-03-20T19:05:09.000Z</time>
      </trkpt>
      <trkpt lat="44.4018" lon="4.51802">
        <ele>369</ele>
        <time>2025-03-20T19:05:44.000Z</time>
      </trkpt>
      <trkpt lat="44.40168" lon="4.51767">
        <ele>370</ele>
        <time>2025-03-20T19:06:26.000Z</time>
      </trkpt>
      <trkpt lat="44.40151" lon="4.51727">
        <ele>371</ele>
        <time>2025-03-20T19:07:15.000Z</time>
      </trkpt>
      <trkpt lat="44.40135" lon="4.51688">
        <ele>372</ele>
        <time>2025-03-20T19:08:02.000Z</time>
      </trkpt>
      <trkpt lat="44.40121" lon="4.5166">
        <ele>372</ele>
        <time>2025-03-20T19:08:29.000Z</time>
      </trkpt>
      <trkpt lat="44.40104" lon="4.51632">
        <ele>373</ele>
        <time>2025-03-20T19:09:10.000Z</time>
      </trkpt>
      <trkpt lat="44.40074" lon="4.51564">
        <ele>373</ele>
        <time>2025-03-20T19:10:15.000Z</time>
      </trkpt>
      <trkpt lat="44.40061" lon="4.51538">
        <ele>373</ele>
        <time>2025-03-20T19:10:41.000Z</time>
      </trkpt>
      <trkpt lat="44.40027" lon="4.51424">
        <ele>375</ele>
        <time>2025-03-20T19:12:42.000Z</time>
      </trkpt>
      <trkpt lat="44.39994" lon="4.51319">
        <ele>377</ele>
        <time>2025-03-20T19:14:37.000Z</time>
      </trkpt>
      <trkpt lat="44.39974" lon="4.51266">
        <ele>377</ele>
        <time>2025-03-20T19:15:26.000Z</time>
      </trkpt>
      <trkpt lat="44.39954" lon="4.5122">
        <ele>377</ele>
        <time>2025-03-20T19:16:10.000Z</time>
      </trkpt>
      <trkpt lat="44.39932" lon="4.51173">
        <ele>377</ele>
        <time>2025-03-20T19:16:56.000Z</time>
      </trkpt>
      <trkpt lat="44.39906" lon="4.51128">
        <ele>376</ele>
        <time>2025-03-20T19:17:43.000Z</time>
      </trkpt>
      <trkpt lat="44.39886" lon="4.51094">
        <ele>376</ele>
        <time>2025-03-20T19:18:19.000Z</time>
      </trkpt>
      <trkpt lat="44.39866" lon="4.51067">
        <ele>375</ele>
        <time>2025-03-20T19:18:51.000Z</time>
      </trkpt>
      <trkpt lat="44.39841" lon="4.51034">
        <ele>375</ele>
        <time>2025-03-20T19:19:29.000Z</time>
      </trkpt>
      <trkpt lat="44.39817" lon="4.51007">
        <ele>374</ele>
        <time>2025-03-20T19:20:05.000Z</time>
      </trkpt>
      <trkpt lat="44.39793" lon="4.50973">
        <ele>374</ele>
        <time>2025-03-20T19:20:44.000Z</time>
      </trkpt>
      <trkpt lat="44.39765" lon="4.50929">
        <ele>373</ele>
        <time>2025-03-20T19:21:32.000Z</time>
      </trkpt>
      <trkpt lat="44.39732" lon="4.50873">
        <ele>372</ele>
        <time>2025-03-20T19:22:31.000Z</time>
      </trkpt>
      <trkpt lat="44.39696" lon="4.50812">
        <ele>372</ele>
        <time>2025-03-20T19:23:36.000Z</time>
      </trkpt>
      <trkpt lat="44.39675" lon="4.50774">
        <ele>371</ele>
        <time>2025-03-20T19:24:15.000Z</time>
      </trkpt>
      <trkpt lat="44.39659" lon="4.50732">
        <ele>371</ele>
        <time>2025-03-20T19:24:54.000Z</time>
      </trkpt>
      <trkpt lat="44.39578" lon="4.50662">
        <ele>370</ele>
        <time>2025-03-20T19:26:43.000Z</time>
      </trkpt>
      <trkpt lat="44.39539" lon="4.50628">
        <ele>370</ele>
        <time>2025-03-20T19:27:36.000Z</time>
      </trkpt>
      <trkpt lat="44.39518" lon="4.50608">
        <ele>369</ele>
        <time>2025-03-20T19:28:05.000Z</time>
      </trkpt>
      <trkpt lat="44.39504" lon="4.50595">
        <ele>369</ele>
        <time>2025-03-20T19:28:24.000Z</time>
      </trkpt>
      <trkpt lat="44.39453" lon="4.50529">
        <ele>368</ele>
        <time>2025-03-20T19:29:44.000Z</time>
      </trkpt>
      <trkpt lat="44.3943" lon="4.50494">
        <ele>367</ele>
        <time>2025-03-20T19:30:22.000Z</time>
      </trkpt>
      <trkpt lat="44.39418" lon="4.50477">
        <ele>367</ele>
        <time>2025-03-20T19:30:42.000Z</time>
      </trkpt>
      <trkpt lat="44.39415" lon="4.50467">
        <ele>367</ele>
        <time>2025-03-20T19:30:51.000Z</time>
      </trkpt>
      <trkpt lat="44.39415" lon="4.50455">
        <ele>366</ele>
        <time>2025-03-20T19:31:01.000Z</time>
      </trkpt>
      <trkpt lat="44.39409" lon="4.50453">
        <ele>366</ele>
        <time>2025-03-20T19:31:08.000Z</time>
      </trkpt>
      <trkpt lat="44.39404" lon="4.50435">
        <ele>366</ele>
        <time>2025-03-20T19:31:24.000Z</time>
      </trkpt>
      <trkpt lat="44.39385" lon="4.50396">
        <ele>365</ele>
        <time>2025-03-20T19:32:03.000Z</time>
      </trkpt>
      <trkpt lat="44.39362" lon="4.50355">
        <ele>365</ele>
        <time>2025-03-20T19:32:45.000Z</time>
      </trkpt>
      <trkpt lat="44.39343" lon="4.50313">
        <ele>364</ele>
        <time>2025-03-20T19:33:26.000Z</time>
      </trkpt>
      <trkpt lat="44.39322" lon="4.50271">
        <ele>364</ele>
        <time>2025-03-20T19:34:09.000Z</time>
      </trkpt>
      <trkpt lat="44.39309" lon="4.50263">
        <ele>364</ele>
        <time>2025-03-20T19:34:25.000Z</time>
      </trkpt>
      <trkpt lat="44.39313" lon="4.50239">
        <ele>364</ele>
        <time>2025-03-20T19:34:45.000Z</time>
      </trkpt>
      <trkpt lat="44.39311" lon="4.50227">
        <ele>364</ele>
        <time>2025-03-20T19:34:55.000Z</time>
      </trkpt>
      <trkpt lat="44.39301" lon="4.50195">
        <ele>362</ele>
        <time>2025-03-20T19:35:23.000Z</time>
      </trkpt>
      <trkpt lat="44.39271" lon="4.50213">
        <ele>364</ele>
        <time>2025-03-20T19:36:21.000Z</time>
      </trkpt>
      <trkpt lat="44.39253" lon="4.50217">
        <ele>365</ele>
        <time>2025-03-20T19:36:51.000Z</time>
      </trkpt>
      <trkpt lat="44.39248" lon="4.50202">
        <ele>365</ele>
        <time>2025-03-20T19:37:05.000Z</time>
      </trkpt>
      <trkpt lat="44.39242" lon="4.50183">
        <ele>365</ele>
        <time>2025-03-20T19:37:22.000Z</time>
      </trkpt>
      <trkpt lat="44.39241" lon="4.50166">
        <ele>365</ele>
        <time>2025-03-20T19:37:36.000Z</time>
      </trkpt>
      <trkpt lat="44.39246" lon="4.50154">
        <ele>364</ele>
        <time>2025-03-20T19:37:47.000Z</time>
      </trkpt>
      <trkpt lat="44.39228" lon="4.50158">
        <ele>365</ele>
        <time>2025-03-20T19:38:18.000Z</time>
      </trkpt>
      <trkpt lat="44.39217" lon="4.50159">
        <ele>365</ele>
        <time>2025-03-20T19:38:31.000Z</time>
      </trkpt>
      <trkpt lat="44.39202" lon="4.50163">
        <ele>365</ele>
        <time>2025-03-20T19:38:49.000Z</time>
      </trkpt>
      <trkpt lat="44.39196" lon="4.50148">
        <ele>365</ele>
        <time>2025-03-20T19:39:04.000Z</time>
      </trkpt>
      <trkpt lat="44.39192" lon="4.50133">
        <ele>365</ele>
        <time>2025-03-20T19:39:17.000Z</time>
      </trkpt>
      <trkpt lat="44.39195" lon="4.50115">
        <ele>365</ele>
        <time>2025-03-20T19:39:32.000Z</time>
      </trkpt>
    </trkseg>
  </trk>
</gpx>